sensor_id;sensor_type;location;lat;lon;timestamp;P1;durP1;ratioP1;P2;durP2;ratioP2
13868;SDS011;7004;48.206;16.402;2023-11-19T00:01:31;14.40;;;8.93;;
13868;SDS011;7004;48.206;16.402;2023-11-19T00:03:58;16.40;;;9.03;;
13868;SDS011;7004;48.206;16.402;2023-11-19T00:06:24;12.87;;;8.93;;
13868;SDS011;7004;48.206;16.402;2023-11-19T00:08:50;13.90;;;7.93;;
13868;SDS011;7004;48.206;16.402;2023-11-19T00:11:17;11.70;;;8.60;;
13868;SDS011;7004;48.206;16.402;2023-11-19T00:13:43;10.47;;;8.17;;
13868;SDS011;7004;48.206;16.402;2023-11-19T00:16:09;10.43;;;7.73;;
13868;SDS011;7004;48.206;16.402;2023-11-19T00:18:35;11.47;;;8.47;;
13868;SDS011;7004;48.206;16.402;2023-11-19T00:21:02;12.83;;;9.10;;
13868;SDS011;7004;48.206;16.402;2023-11-19T00:23:29;15.70;;;8.33;;
13868;SDS011;7004;48.206;16.402;2023-11-19T00:25:54;14.60;;;8.83;;
13868;SDS011;7004;48.206;16.402;2023-11-19T00:28:20;11.30;;;8.10;;
13868;SDS011;7004;48.206;16.402;2023-11-19T00:30:46;10.87;;;8.10;;
13868;SDS011;7004;48.206;16.402;2023-11-19T00:33:12;14.33;;;7.93;;
13868;SDS011;7004;48.206;16.402;2023-11-19T00:35:39;12.57;;;7.30;;
13868;SDS011;7004;48.206;16.402;2023-11-19T00:38:05;16.50;;;8.57;;
13868;SDS011;7004;48.206;16.402;2023-11-19T00:40:31;14.40;;;7.63;;
13868;SDS011;7004;48.206;16.402;2023-11-19T00:42:57;12.30;;;7.73;;
13868;SDS011;7004;48.206;16.402;2023-11-19T00:45:23;11.63;;;7.90;;
13868;SDS011;7004;48.206;16.402;2023-11-19T00:47:50;11.03;;;7.83;;
13868;SDS011;7004;48.206;16.402;2023-11-19T00:50:16;12.53;;;7.90;;
13868;SDS011;7004;48.206;16.402;2023-11-19T00:52:42;15.73;;;9.03;;
13868;SDS011;7004;48.206;16.402;2023-11-19T00:55:09;11.23;;;8.13;;
13868;SDS011;7004;48.206;16.402;2023-11-19T00:57:35;11.97;;;8.30;;
13868;SDS011;7004;48.206;16.402;2023-11-19T01:00:02;12.80;;;8.87;;
13868;SDS011;7004;48.206;16.402;2023-11-19T01:02:40;12.40;;;8.10;;
13868;SDS011;7004;48.206;16.402;2023-11-19T01:05:07;13.47;;;8.00;;
13868;SDS011;7004;48.206;16.402;2023-11-19T01:07:34;13.80;;;8.30;;
13868;SDS011;7004;48.206;16.402;2023-11-19T01:10:00;15.80;;;8.63;;
13868;SDS011;7004;48.206;16.402;2023-11-19T01:12:28;14.43;;;8.03;;
13868;SDS011;7004;48.206;16.402;2023-11-19T01:14:56;16.73;;;8.33;;
13868;SDS011;7004;48.206;16.402;2023-11-19T01:17:23;14.43;;;8.43;;
13868;SDS011;7004;48.206;16.402;2023-11-19T01:19:49;11.60;;;8.63;;
13868;SDS011;7004;48.206;16.402;2023-11-19T01:22:15;15.43;;;8.90;;
13868;SDS011;7004;48.206;16.402;2023-11-19T01:24:41;13.47;;;8.13;;
13868;SDS011;7004;48.206;16.402;2023-11-19T01:27:07;10.87;;;8.07;;
13868;SDS011;7004;48.206;16.402;2023-11-19T01:29:33;12.47;;;8.57;;
13868;SDS011;7004;48.206;16.402;2023-11-19T01:31:59;12.67;;;8.10;;
13868;SDS011;7004;48.206;16.402;2023-11-19T01:34:25;12.93;;;8.47;;
13868;SDS011;7004;48.206;16.402;2023-11-19T01:36:52;10.20;;;7.53;;
13868;SDS011;7004;48.206;16.402;2023-11-19T01:39:18;11.43;;;8.30;;
13868;SDS011;7004;48.206;16.402;2023-11-19T01:41:45;15.47;;;8.70;;
13868;SDS011;7004;48.206;16.402;2023-11-19T01:44:11;13.47;;;8.60;;
13868;SDS011;7004;48.206;16.402;2023-11-19T01:46:40;12.97;;;8.73;;
13868;SDS011;7004;48.206;16.402;2023-11-19T01:49:09;13.03;;;8.07;;
13868;SDS011;7004;48.206;16.402;2023-11-19T01:51:37;10.33;;;7.70;;
13868;SDS011;7004;48.206;16.402;2023-11-19T01:54:05;9.37;;;7.07;;
13868;SDS011;7004;48.206;16.402;2023-11-19T01:56:33;11.03;;;7.10;;
13868;SDS011;7004;48.206;16.402;2023-11-19T01:59:02;10.53;;;7.47;;
13868;SDS011;7004;48.206;16.402;2023-11-19T02:01:29;10.23;;;7.73;;
13868;SDS011;7004;48.206;16.402;2023-11-19T02:04:02;11.70;;;7.83;;
13868;SDS011;7004;48.206;16.402;2023-11-19T02:06:32;13.10;;;8.13;;
13868;SDS011;7004;48.206;16.402;2023-11-19T02:09:03;12.43;;;7.97;;
13868;SDS011;7004;48.206;16.402;2023-11-19T02:11:35;11.90;;;8.27;;
13868;SDS011;7004;48.206;16.402;2023-11-19T02:14:04;13.27;;;8.50;;
13868;SDS011;7004;48.206;16.402;2023-11-19T02:16:31;11.23;;;8.07;;
13868;SDS011;7004;48.206;16.402;2023-11-19T02:18:59;11.90;;;8.30;;
13868;SDS011;7004;48.206;16.402;2023-11-19T02:21:25;13.50;;;8.30;;
13868;SDS011;7004;48.206;16.402;2023-11-19T02:23:52;11.90;;;8.17;;
13868;SDS011;7004;48.206;16.402;2023-11-19T02:26:26;11.43;;;7.90;;
13868;SDS011;7004;48.206;16.402;2023-11-19T02:29:02;8.60;;;7.17;;
13868;SDS011;7004;48.206;16.402;2023-11-19T02:31:29;11.77;;;8.07;;
13868;SDS011;7004;48.206;16.402;2023-11-19T02:33:55;10.90;;;8.10;;
13868;SDS011;7004;48.206;16.402;2023-11-19T02:36:23;13.10;;;7.80;;
13868;SDS011;7004;48.206;16.402;2023-11-19T02:38:49;11.30;;;7.67;;
13868;SDS011;7004;48.206;16.402;2023-11-19T02:41:15;10.40;;;7.77;;
13868;SDS011;7004;48.206;16.402;2023-11-19T02:43:41;9.60;;;7.33;;
13868;SDS011;7004;48.206;16.402;2023-11-19T02:46:07;6.40;;;5.07;;
13868;SDS011;7004;48.206;16.402;2023-11-19T02:48:37;6.43;;;5.70;;
13868;SDS011;7004;48.206;16.402;2023-11-19T02:51:03;8.50;;;6.17;;
13868;SDS011;7004;48.206;16.402;2023-11-19T02:53:35;7.40;;;6.23;;
13868;SDS011;7004;48.206;16.402;2023-11-19T02:56:05;8.43;;;6.20;;
13868;SDS011;7004;48.206;16.402;2023-11-19T02:58:45;7.27;;;6.10;;
13868;SDS011;7004;48.206;16.402;2023-11-19T03:01:12;7.20;;;6.10;;
13868;SDS011;7004;48.206;16.402;2023-11-19T03:03:49;7.90;;;6.33;;
13868;SDS011;7004;48.206;16.402;2023-11-19T03:06:22;7.87;;;6.10;;
13868;SDS011;7004;48.206;16.402;2023-11-19T03:08:49;7.97;;;5.83;;
13868;SDS011;7004;48.206;16.402;2023-11-19T03:11:17;7.60;;;6.13;;
13868;SDS011;7004;48.206;16.402;2023-11-19T03:13:52;9.60;;;6.13;;
13868;SDS011;7004;48.206;16.402;2023-11-19T03:16:19;7.23;;;6.13;;
13868;SDS011;7004;48.206;16.402;2023-11-19T03:18:45;8.57;;;6.17;;
13868;SDS011;7004;48.206;16.402;2023-11-19T03:21:12;9.30;;;6.57;;
13868;SDS011;7004;48.206;16.402;2023-11-19T03:23:40;7.00;;;6.30;;
13868;SDS011;7004;48.206;16.402;2023-11-19T03:26:06;8.37;;;6.60;;
13868;SDS011;7004;48.206;16.402;2023-11-19T03:28:33;9.07;;;6.20;;
13868;SDS011;7004;48.206;16.402;2023-11-19T03:31:01;7.70;;;6.00;;
13868;SDS011;7004;48.206;16.402;2023-11-19T03:33:33;7.60;;;6.37;;
13868;SDS011;7004;48.206;16.402;2023-11-19T03:35:59;7.30;;;5.93;;
13868;SDS011;7004;48.206;16.402;2023-11-19T03:38:25;7.90;;;6.60;;
13868;SDS011;7004;48.206;16.402;2023-11-19T03:40:52;7.37;;;6.10;;
13868;SDS011;7004;48.206;16.402;2023-11-19T03:43:18;10.40;;;6.67;;
13868;SDS011;7004;48.206;16.402;2023-11-19T03:45:46;8.77;;;6.70;;
13868;SDS011;7004;48.206;16.402;2023-11-19T03:48:13;6.87;;;5.83;;
13868;SDS011;7004;48.206;16.402;2023-11-19T03:50:42;6.73;;;5.80;;
13868;SDS011;7004;48.206;16.402;2023-11-19T03:53:11;6.90;;;6.20;;
13868;SDS011;7004;48.206;16.402;2023-11-19T03:55:38;9.20;;;6.07;;
13868;SDS011;7004;48.206;16.402;2023-11-19T03:58:04;10.47;;;6.00;;
13868;SDS011;7004;48.206;16.402;2023-11-19T04:00:30;6.53;;;5.60;;
13868;SDS011;7004;48.206;16.402;2023-11-19T04:02:56;8.97;;;6.47;;
13868;SDS011;7004;48.206;16.402;2023-11-19T04:05:22;7.73;;;6.13;;
13868;SDS011;7004;48.206;16.402;2023-11-19T04:07:48;8.47;;;6.43;;
13868;SDS011;7004;48.206;16.402;2023-11-19T04:10:14;8.10;;;6.17;;
13868;SDS011;7004;48.206;16.402;2023-11-19T04:12:41;8.67;;;5.87;;
13868;SDS011;7004;48.206;16.402;2023-11-19T04:15:08;8.80;;;6.20;;
13868;SDS011;7004;48.206;16.402;2023-11-19T04:17:34;7.80;;;5.97;;
13868;SDS011;7004;48.206;16.402;2023-11-19T04:20:00;8.10;;;6.20;;
13868;SDS011;7004;48.206;16.402;2023-11-19T04:22:26;8.60;;;6.70;;
13868;SDS011;7004;48.206;16.402;2023-11-19T04:24:52;8.43;;;6.10;;
13868;SDS011;7004;48.206;16.402;2023-11-19T04:27:19;7.43;;;6.73;;
13868;SDS011;7004;48.206;16.402;2023-11-19T04:29:45;8.00;;;6.03;;
13868;SDS011;7004;48.206;16.402;2023-11-19T04:32:12;7.43;;;6.07;;
13868;SDS011;7004;48.206;16.402;2023-11-19T04:34:38;8.50;;;6.60;;
13868;SDS011;7004;48.206;16.402;2023-11-19T04:37:04;9.00;;;6.13;;
13868;SDS011;7004;48.206;16.402;2023-11-19T04:39:30;7.50;;;6.57;;
13868;SDS011;7004;48.206;16.402;2023-11-19T04:41:56;8.50;;;7.03;;
13868;SDS011;7004;48.206;16.402;2023-11-19T04:44:22;8.17;;;6.47;;
13868;SDS011;7004;48.206;16.402;2023-11-19T04:46:48;9.57;;;6.93;;
13868;SDS011;7004;48.206;16.402;2023-11-19T04:49:14;9.77;;;6.67;;
13868;SDS011;7004;48.206;16.402;2023-11-19T04:51:42;11.00;;;7.60;;
13868;SDS011;7004;48.206;16.402;2023-11-19T04:54:12;7.47;;;6.37;;
13868;SDS011;7004;48.206;16.402;2023-11-19T04:56:38;8.13;;;6.50;;
13868;SDS011;7004;48.206;16.402;2023-11-19T04:59:05;8.87;;;7.20;;
13868;SDS011;7004;48.206;16.402;2023-11-19T05:01:32;9.13;;;6.83;;
13868;SDS011;7004;48.206;16.402;2023-11-19T05:03:58;8.63;;;6.83;;
13868;SDS011;7004;48.206;16.402;2023-11-19T05:06:28;8.57;;;6.90;;
13868;SDS011;7004;48.206;16.402;2023-11-19T05:08:56;12.93;;;7.10;;
13868;SDS011;7004;48.206;16.402;2023-11-19T05:11:26;9.30;;;7.20;;
13868;SDS011;7004;48.206;16.402;2023-11-19T05:13:53;9.67;;;6.93;;
13868;SDS011;7004;48.206;16.402;2023-11-19T05:16:20;12.13;;;7.27;;
13868;SDS011;7004;48.206;16.402;2023-11-19T05:18:46;10.13;;;7.43;;
13868;SDS011;7004;48.206;16.402;2023-11-19T05:21:12;12.20;;;8.03;;
13868;SDS011;7004;48.206;16.402;2023-11-19T05:23:39;10.30;;;7.83;;
13868;SDS011;7004;48.206;16.402;2023-11-19T05:26:07;10.70;;;7.40;;
13868;SDS011;7004;48.206;16.402;2023-11-19T05:28:34;10.03;;;7.60;;
13868;SDS011;7004;48.206;16.402;2023-11-19T05:31:00;10.33;;;7.93;;
13868;SDS011;7004;48.206;16.402;2023-11-19T05:33:26;12.67;;;8.33;;
13868;SDS011;7004;48.206;16.402;2023-11-19T05:35:52;11.90;;;8.17;;
13868;SDS011;7004;48.206;16.402;2023-11-19T05:38:18;10.10;;;7.60;;
13868;SDS011;7004;48.206;16.402;2023-11-19T05:40:44;12.73;;;9.00;;
13868;SDS011;7004;48.206;16.402;2023-11-19T05:43:11;12.23;;;8.60;;
13868;SDS011;7004;48.206;16.402;2023-11-19T05:45:37;11.47;;;8.33;;
13868;SDS011;7004;48.206;16.402;2023-11-19T05:48:04;11.23;;;8.53;;
13868;SDS011;7004;48.206;16.402;2023-11-19T05:50:30;9.87;;;7.87;;
13868;SDS011;7004;48.206;16.402;2023-11-19T05:52:56;11.00;;;8.97;;
13868;SDS011;7004;48.206;16.402;2023-11-19T05:55:22;12.60;;;8.70;;
13868;SDS011;7004;48.206;16.402;2023-11-19T05:57:49;9.90;;;8.27;;
13868;SDS011;7004;48.206;16.402;2023-11-19T06:00:17;10.73;;;8.30;;
13868;SDS011;7004;48.206;16.402;2023-11-19T06:02:43;11.20;;;8.53;;
13868;SDS011;7004;48.206;16.402;2023-11-19T06:05:09;13.07;;;9.13;;
13868;SDS011;7004;48.206;16.402;2023-11-19T06:07:35;13.00;;;8.83;;
13868;SDS011;7004;48.206;16.402;2023-11-19T06:10:02;12.60;;;9.40;;
13868;SDS011;7004;48.206;16.402;2023-11-19T06:12:31;11.37;;;8.50;;
13868;SDS011;7004;48.206;16.402;2023-11-19T06:14:59;11.80;;;9.10;;
13868;SDS011;7004;48.206;16.402;2023-11-19T06:17:26;13.40;;;8.93;;
13868;SDS011;7004;48.206;16.402;2023-11-19T06:19:52;17.40;;;12.43;;
13868;SDS011;7004;48.206;16.402;2023-11-19T06:22:17;11.63;;;8.50;;
13868;SDS011;7004;48.206;16.402;2023-11-19T06:24:44;13.70;;;9.67;;
13868;SDS011;7004;48.206;16.402;2023-11-19T06:27:10;10.97;;;8.97;;
13868;SDS011;7004;48.206;16.402;2023-11-19T06:29:36;12.27;;;8.90;;
13868;SDS011;7004;48.206;16.402;2023-11-19T06:32:02;11.60;;;8.93;;
13868;SDS011;7004;48.206;16.402;2023-11-19T06:34:29;12.47;;;8.63;;
13868;SDS011;7004;48.206;16.402;2023-11-19T06:36:55;12.40;;;9.83;;
13868;SDS011;7004;48.206;16.402;2023-11-19T06:39:21;13.73;;;9.57;;
13868;SDS011;7004;48.206;16.402;2023-11-19T06:41:47;11.43;;;9.30;;
13868;SDS011;7004;48.206;16.402;2023-11-19T06:44:13;9.83;;;8.83;;
13868;SDS011;7004;48.206;16.402;2023-11-19T06:46:40;12.67;;;9.83;;
13868;SDS011;7004;48.206;16.402;2023-11-19T06:49:06;12.37;;;9.47;;
13868;SDS011;7004;48.206;16.402;2023-11-19T06:51:35;15.17;;;9.60;;
13868;SDS011;7004;48.206;16.402;2023-11-19T06:54:01;13.77;;;9.63;;
13868;SDS011;7004;48.206;16.402;2023-11-19T06:56:27;11.73;;;9.33;;
13868;SDS011;7004;48.206;16.402;2023-11-19T06:58:53;11.87;;;9.07;;
13868;SDS011;7004;48.206;16.402;2023-11-19T07:01:19;12.47;;;9.10;;
13868;SDS011;7004;48.206;16.402;2023-11-19T07:03:46;16.40;;;9.53;;
13868;SDS011;7004;48.206;16.402;2023-11-19T07:06:13;12.70;;;8.77;;
13868;SDS011;7004;48.206;16.402;2023-11-19T07:08:43;12.93;;;8.97;;
13868;SDS011;7004;48.206;16.402;2023-11-19T07:11:12;10.53;;;8.37;;
13868;SDS011;7004;48.206;16.402;2023-11-19T07:13:41;13.67;;;8.67;;
13868;SDS011;7004;48.206;16.402;2023-11-19T07:16:07;10.57;;;8.67;;
13868;SDS011;7004;48.206;16.402;2023-11-19T07:18:35;14.03;;;9.13;;
13868;SDS011;7004;48.206;16.402;2023-11-19T07:21:01;10.33;;;7.97;;
13868;SDS011;7004;48.206;16.402;2023-11-19T07:23:29;11.23;;;8.47;;
13868;SDS011;7004;48.206;16.402;2023-11-19T07:25:56;11.43;;;8.57;;
13868;SDS011;7004;48.206;16.402;2023-11-19T07:28:22;13.77;;;9.20;;
13868;SDS011;7004;48.206;16.402;2023-11-19T07:30:48;13.67;;;9.00;;
13868;SDS011;7004;48.206;16.402;2023-11-19T07:33:15;12.30;;;9.07;;
13868;SDS011;7004;48.206;16.402;2023-11-19T07:35:42;12.53;;;8.97;;
13868;SDS011;7004;48.206;16.402;2023-11-19T07:38:09;13.30;;;10.03;;
13868;SDS011;7004;48.206;16.402;2023-11-19T07:40:35;11.17;;;8.77;;
13868;SDS011;7004;48.206;16.402;2023-11-19T07:43:01;13.27;;;9.33;;
13868;SDS011;7004;48.206;16.402;2023-11-19T07:45:27;10.27;;;8.33;;
13868;SDS011;7004;48.206;16.402;2023-11-19T07:47:53;12.07;;;8.90;;
13868;SDS011;7004;48.206;16.402;2023-11-19T07:50:20;18.10;;;9.00;;
13868;SDS011;7004;48.206;16.402;2023-11-19T07:52:46;10.17;;;8.40;;
13868;SDS011;7004;48.206;16.402;2023-11-19T07:55:13;9.70;;;7.97;;
13868;SDS011;7004;48.206;16.402;2023-11-19T07:57:39;11.40;;;7.80;;
13868;SDS011;7004;48.206;16.402;2023-11-19T08:00:05;9.53;;;8.00;;
13868;SDS011;7004;48.206;16.402;2023-11-19T08:02:37;10.93;;;7.67;;
13868;SDS011;7004;48.206;16.402;2023-11-19T08:05:04;10.03;;;7.90;;
13868;SDS011;7004;48.206;16.402;2023-11-19T08:07:31;9.67;;;7.47;;
13868;SDS011;7004;48.206;16.402;2023-11-19T08:09:58;10.57;;;8.00;;
13868;SDS011;7004;48.206;16.402;2023-11-19T08:12:25;9.97;;;8.10;;
13868;SDS011;7004;48.206;16.402;2023-11-19T08:14:51;10.83;;;7.93;;
13868;SDS011;7004;48.206;16.402;2023-11-19T08:17:17;11.67;;;8.80;;
13868;SDS011;7004;48.206;16.402;2023-11-19T08:19:43;11.33;;;8.10;;
13868;SDS011;7004;48.206;16.402;2023-11-19T08:22:09;10.47;;;7.70;;
13868;SDS011;7004;48.206;16.402;2023-11-19T08:24:35;11.27;;;7.50;;
13868;SDS011;7004;48.206;16.402;2023-11-19T08:27:02;11.57;;;8.60;;
13868;SDS011;7004;48.206;16.402;2023-11-19T08:29:28;10.60;;;8.13;;
13868;SDS011;7004;48.206;16.402;2023-11-19T08:31:54;9.43;;;7.70;;
13868;SDS011;7004;48.206;16.402;2023-11-19T08:34:20;11.40;;;8.33;;
13868;SDS011;7004;48.206;16.402;2023-11-19T08:36:49;10.73;;;7.70;;
13868;SDS011;7004;48.206;16.402;2023-11-19T08:39:18;9.67;;;7.67;;
13868;SDS011;7004;48.206;16.402;2023-11-19T08:41:46;8.83;;;7.37;;
13868;SDS011;7004;48.206;16.402;2023-11-19T08:44:13;9.40;;;7.57;;
13868;SDS011;7004;48.206;16.402;2023-11-19T08:46:46;9.37;;;7.53;;
13868;SDS011;7004;48.206;16.402;2023-11-19T08:49:15;8.03;;;6.87;;
13868;SDS011;7004;48.206;16.402;2023-11-19T08:51:41;9.30;;;7.77;;
13868;SDS011;7004;48.206;16.402;2023-11-19T08:54:07;10.30;;;7.60;;
13868;SDS011;7004;48.206;16.402;2023-11-19T08:56:33;10.13;;;8.00;;
13868;SDS011;7004;48.206;16.402;2023-11-19T08:59:00;13.33;;;8.60;;
13868;SDS011;7004;48.206;16.402;2023-11-19T09:01:27;11.80;;;8.40;;
13868;SDS011;7004;48.206;16.402;2023-11-19T09:03:54;10.83;;;8.80;;
13868;SDS011;7004;48.206;16.402;2023-11-19T09:06:20;9.93;;;8.30;;
13868;SDS011;7004;48.206;16.402;2023-11-19T09:08:46;11.33;;;8.17;;
13868;SDS011;7004;48.206;16.402;2023-11-19T09:11:12;9.73;;;7.77;;
13868;SDS011;7004;48.206;16.402;2023-11-19T09:13:38;8.73;;;7.30;;
13868;SDS011;7004;48.206;16.402;2023-11-19T09:16:04;9.73;;;7.13;;
13868;SDS011;7004;48.206;16.402;2023-11-19T09:18:31;8.23;;;6.83;;
13868;SDS011;7004;48.206;16.402;2023-11-19T09:20:57;8.10;;;6.60;;
13868;SDS011;7004;48.206;16.402;2023-11-19T09:23:24;7.37;;;6.10;;
13868;SDS011;7004;48.206;16.402;2023-11-19T09:25:50;8.10;;;6.80;;
13868;SDS011;7004;48.206;16.402;2023-11-19T09:28:17;7.20;;;6.27;;
13868;SDS011;7004;48.206;16.402;2023-11-19T09:30:43;7.00;;;6.30;;
13868;SDS011;7004;48.206;16.402;2023-11-19T09:33:09;6.20;;;5.60;;
13868;SDS011;7004;48.206;16.402;2023-11-19T09:35:35;7.50;;;5.30;;
13868;SDS011;7004;48.206;16.402;2023-11-19T09:38:01;7.30;;;5.60;;
13868;SDS011;7004;48.206;16.402;2023-11-19T09:40:27;6.67;;;5.80;;
13868;SDS011;7004;48.206;16.402;2023-11-19T09:42:54;7.43;;;6.17;;
13868;SDS011;7004;48.206;16.402;2023-11-19T09:45:20;6.70;;;5.60;;
13868;SDS011;7004;48.206;16.402;2023-11-19T09:47:47;6.97;;;5.87;;
13868;SDS011;7004;48.206;16.402;2023-11-19T09:50:17;7.23;;;5.90;;
13868;SDS011;7004;48.206;16.402;2023-11-19T09:52:44;8.07;;;6.50;;
13868;SDS011;7004;48.206;16.402;2023-11-19T09:55:14;7.40;;;6.33;;
13868;SDS011;7004;48.206;16.402;2023-11-19T09:57:40;6.67;;;5.10;;
13868;SDS011;7004;48.206;16.402;2023-11-19T10:00:07;7.47;;;5.53;;
13868;SDS011;7004;48.206;16.402;2023-11-19T10:02:36;7.30;;;5.97;;
13868;SDS011;7004;48.206;16.402;2023-11-19T10:05:06;8.17;;;6.07;;
13868;SDS011;7004;48.206;16.402;2023-11-19T10:07:33;6.30;;;5.60;;
13868;SDS011;7004;48.206;16.402;2023-11-19T10:10:00;6.27;;;5.40;;
13868;SDS011;7004;48.206;16.402;2023-11-19T10:12:29;8.67;;;6.60;;
13868;SDS011;7004;48.206;16.402;2023-11-19T10:14:59;8.67;;;6.13;;
13868;SDS011;7004;48.206;16.402;2023-11-19T10:17:28;7.63;;;5.97;;
13868;SDS011;7004;48.206;16.402;2023-11-19T10:19:57;7.90;;;6.23;;
13868;SDS011;7004;48.206;16.402;2023-11-19T10:22:24;7.13;;;5.87;;
13868;SDS011;7004;48.206;16.402;2023-11-19T10:24:52;6.40;;;5.43;;
13868;SDS011;7004;48.206;16.402;2023-11-19T10:27:18;6.50;;;5.27;;
13868;SDS011;7004;48.206;16.402;2023-11-19T10:29:45;7.77;;;5.27;;
13868;SDS011;7004;48.206;16.402;2023-11-19T10:32:12;6.63;;;5.13;;
13868;SDS011;7004;48.206;16.402;2023-11-19T10:34:42;6.07;;;5.20;;
13868;SDS011;7004;48.206;16.402;2023-11-19T10:37:09;6.10;;;5.43;;
13868;SDS011;7004;48.206;16.402;2023-11-19T10:39:52;6.57;;;5.17;;
13868;SDS011;7004;48.206;16.402;2023-11-19T10:42:20;5.70;;;5.00;;
13868;SDS011;7004;48.206;16.402;2023-11-19T10:44:46;6.60;;;5.80;;
13868;SDS011;7004;48.206;16.402;2023-11-19T10:47:15;6.20;;;5.43;;
13868;SDS011;7004;48.206;16.402;2023-11-19T10:49:45;7.63;;;5.13;;
13868;SDS011;7004;48.206;16.402;2023-11-19T10:52:11;6.10;;;5.37;;
13868;SDS011;7004;48.206;16.402;2023-11-19T10:54:41;7.20;;;6.20;;
13868;SDS011;7004;48.206;16.402;2023-11-19T10:57:12;7.23;;;5.87;;
13868;SDS011;7004;48.206;16.402;2023-11-19T10:59:49;7.90;;;6.03;;
13868;SDS011;7004;48.206;16.402;2023-11-19T11:02:21;5.90;;;5.03;;
13868;SDS011;7004;48.206;16.402;2023-11-19T11:04:52;7.33;;;5.10;;
13868;SDS011;7004;48.206;16.402;2023-11-19T11:07:21;9.23;;;6.00;;
13868;SDS011;7004;48.206;16.402;2023-11-19T11:09:51;7.80;;;5.40;;
13868;SDS011;7004;48.206;16.402;2023-11-19T11:12:21;7.90;;;6.23;;
13868;SDS011;7004;48.206;16.402;2023-11-19T11:14:49;6.37;;;5.63;;
13868;SDS011;7004;48.206;16.402;2023-11-19T11:17:17;7.57;;;5.80;;
13868;SDS011;7004;48.206;16.402;2023-11-19T11:19:44;10.43;;;7.70;;
13868;SDS011;7004;48.206;16.402;2023-11-19T11:22:10;8.13;;;6.80;;
13868;SDS011;7004;48.206;16.402;2023-11-19T11:25:02;11.37;;;8.53;;
13868;SDS011;7004;48.206;16.402;2023-11-19T11:28:18;8.77;;;6.80;;
13868;SDS011;7004;48.206;16.402;2023-11-19T11:39:35;8.67;;;6.97;;
13868;SDS011;7004;48.206;16.402;2023-11-19T11:57:59;7.93;;;6.80;;
13868;SDS011;7004;48.206;16.402;2023-11-19T12:02:56;9.37;;;7.10;;
13868;SDS011;7004;48.206;16.402;2023-11-19T12:05:24;10.47;;;7.53;;
13868;SDS011;7004;48.206;16.402;2023-11-19T12:08:00;9.23;;;7.13;;
13868;SDS011;7004;48.206;16.402;2023-11-19T12:10:33;11.33;;;7.40;;
13868;SDS011;7004;48.206;16.402;2023-11-19T12:13:08;10.10;;;7.33;;
13868;SDS011;7004;48.206;16.402;2023-11-19T12:18:28;10.13;;;6.83;;
13868;SDS011;7004;48.206;16.402;2023-11-19T12:20:59;10.17;;;7.13;;
13868;SDS011;7004;48.206;16.402;2023-11-19T12:23:26;11.17;;;8.00;;
13868;SDS011;7004;48.206;16.402;2023-11-19T12:25:55;9.87;;;7.97;;
13868;SDS011;7004;48.206;16.402;2023-11-19T12:28:22;16.60;;;11.07;;
13868;SDS011;7004;48.206;16.402;2023-11-19T12:30:49;11.50;;;8.53;;
13868;SDS011;7004;48.206;16.402;2023-11-19T12:33:18;11.53;;;8.30;;
13868;SDS011;7004;48.206;16.402;2023-11-19T12:35:46;11.57;;;8.80;;
13868;SDS011;7004;48.206;16.402;2023-11-19T12:38:18;10.27;;;8.13;;
13868;SDS011;7004;48.206;16.402;2023-11-19T12:40:46;12.53;;;8.37;;
13868;SDS011;7004;48.206;16.402;2023-11-19T12:43:21;11.07;;;8.87;;
13868;SDS011;7004;48.206;16.402;2023-11-19T12:45:47;10.43;;;7.90;;
13868;SDS011;7004;48.206;16.402;2023-11-19T12:48:13;11.80;;;8.53;;
13868;SDS011;7004;48.206;16.402;2023-11-19T12:53:20;10.27;;;8.67;;
13868;SDS011;7004;48.206;16.402;2023-11-19T12:55:47;13.63;;;10.33;;
13868;SDS011;7004;48.206;16.402;2023-11-19T12:58:32;11.53;;;8.17;;
13868;SDS011;7004;48.206;16.402;2023-11-19T13:03:35;13.20;;;9.90;;
13868;SDS011;7004;48.206;16.402;2023-11-19T13:06:04;15.50;;;10.20;;
13868;SDS011;7004;48.206;16.402;2023-11-19T13:08:38;14.43;;;10.70;;
13868;SDS011;7004;48.206;16.402;2023-11-19T13:11:07;12.87;;;10.20;;
13868;SDS011;7004;48.206;16.402;2023-11-19T13:13:53;12.90;;;9.83;;
13868;SDS011;7004;48.206;16.402;2023-11-19T13:16:18;15.10;;;11.47;;
13868;SDS011;7004;48.206;16.402;2023-11-19T13:18:44;13.67;;;10.47;;
13868;SDS011;7004;48.206;16.402;2023-11-19T13:21:10;16.17;;;11.20;;
13868;SDS011;7004;48.206;16.402;2023-11-19T13:23:37;14.60;;;11.10;;
13868;SDS011;7004;48.206;16.402;2023-11-19T13:26:03;12.47;;;10.70;;
13868;SDS011;7004;48.206;16.402;2023-11-19T13:28:31;13.40;;;10.80;;
13868;SDS011;7004;48.206;16.402;2023-11-19T13:30:57;16.53;;;10.83;;
13868;SDS011;7004;48.206;16.402;2023-11-19T13:33:23;14.93;;;11.00;;
13868;SDS011;7004;48.206;16.402;2023-11-19T13:35:49;14.40;;;11.10;;
13868;SDS011;7004;48.206;16.402;2023-11-19T13:38:15;19.83;;;11.97;;
13868;SDS011;7004;48.206;16.402;2023-11-19T13:40:41;14.87;;;10.53;;
13868;SDS011;7004;48.206;16.402;2023-11-19T13:43:08;13.10;;;9.77;;
13868;SDS011;7004;48.206;16.402;2023-11-19T13:45:34;15.93;;;11.40;;
13868;SDS011;7004;48.206;16.402;2023-11-19T13:48:00;13.23;;;9.83;;
13868;SDS011;7004;48.206;16.402;2023-11-19T13:50:26;13.43;;;10.60;;
13868;SDS011;7004;48.206;16.402;2023-11-19T13:52:54;14.33;;;10.67;;
13868;SDS011;7004;48.206;16.402;2023-11-19T13:55:20;15.70;;;11.60;;
13868;SDS011;7004;48.206;16.402;2023-11-19T13:57:47;15.27;;;10.87;;
13868;SDS011;7004;48.206;16.402;2023-11-19T14:00:14;15.20;;;11.47;;
13868;SDS011;7004;48.206;16.402;2023-11-19T14:02:47;15.97;;;11.13;;
13868;SDS011;7004;48.206;16.402;2023-11-19T14:05:14;12.83;;;10.73;;
13868;SDS011;7004;48.206;16.402;2023-11-19T14:07:44;14.00;;;10.73;;
13868;SDS011;7004;48.206;16.402;2023-11-19T14:10:16;14.63;;;10.73;;
13868;SDS011;7004;48.206;16.402;2023-11-19T14:12:43;15.60;;;11.03;;
13868;SDS011;7004;48.206;16.402;2023-11-19T14:15:09;15.97;;;10.60;;
13868;SDS011;7004;48.206;16.402;2023-11-19T14:17:38;13.07;;;10.20;;
13868;SDS011;7004;48.206;16.402;2023-11-19T14:20:05;14.87;;;11.20;;
13868;SDS011;7004;48.206;16.402;2023-11-19T14:22:43;16.30;;;11.87;;
13868;SDS011;7004;48.206;16.402;2023-11-19T14:25:10;15.97;;;11.13;;
13868;SDS011;7004;48.206;16.402;2023-11-19T14:27:37;16.60;;;11.73;;
13868;SDS011;7004;48.206;16.402;2023-11-19T14:30:05;15.10;;;11.80;;
13868;SDS011;7004;48.206;16.402;2023-11-19T14:32:37;17.53;;;12.00;;
13868;SDS011;7004;48.206;16.402;2023-11-19T14:35:04;16.60;;;12.07;;
13868;SDS011;7004;48.206;16.402;2023-11-19T14:37:32;20.20;;;13.30;;
13868;SDS011;7004;48.206;16.402;2023-11-19T14:39:59;19.53;;;12.13;;
13868;SDS011;7004;48.206;16.402;2023-11-19T14:42:27;20.83;;;12.43;;
13868;SDS011;7004;48.206;16.402;2023-11-19T14:44:53;17.77;;;11.20;;
13868;SDS011;7004;48.206;16.402;2023-11-19T14:47:20;15.90;;;11.63;;
13868;SDS011;7004;48.206;16.402;2023-11-19T14:49:47;17.67;;;12.17;;
13868;SDS011;7004;48.206;16.402;2023-11-19T14:52:13;19.83;;;11.97;;
13868;SDS011;7004;48.206;16.402;2023-11-19T14:54:40;15.47;;;11.40;;
13868;SDS011;7004;48.206;16.402;2023-11-19T14:57:06;16.47;;;12.30;;
13868;SDS011;7004;48.206;16.402;2023-11-19T14:59:36;15.00;;;11.97;;
13868;SDS011;7004;48.206;16.402;2023-11-19T15:02:02;16.67;;;12.23;;
13868;SDS011;7004;48.206;16.402;2023-11-19T15:04:30;18.50;;;11.30;;
13868;SDS011;7004;48.206;16.402;2023-11-19T15:06:57;17.10;;;12.30;;
13868;SDS011;7004;48.206;16.402;2023-11-19T15:09:24;17.53;;;10.97;;
13868;SDS011;7004;48.206;16.402;2023-11-19T15:11:51;14.97;;;11.47;;
13868;SDS011;7004;48.206;16.402;2023-11-19T15:14:19;19.67;;;11.93;;
13868;SDS011;7004;48.206;16.402;2023-11-19T15:16:46;18.77;;;12.30;;